createdAt,value
2022-07-28T00:03:11.325Z,49.63
2022-07-28T00:08:12.385Z,49.83
2022-07-28T00:13:11.174Z,49.67
2022-07-28T00:18:10.039Z,49.79
2022-07-28T00:23:08.879Z,50.25
2022-07-28T00:28:09.125Z,50.90
2022-07-28T00:33:07.860Z,50.68
2022-07-28T00:38:06.691Z,50.29
2022-07-28T00:43:05.481Z,50.20
2022-07-28T00:48:06.184Z,50.45
2022-07-28T00:53:04.996Z,50.21
2022-07-28T00:58:03.762Z,49.72
2022-07-28T01:03:02.891Z,49.46
2022-07-28T01:08:07.149Z,49.35
2022-07-28T01:13:14.690Z,48.67
2022-07-28T01:18:19.889Z,48.99
2022-07-28T01:23:37.973Z,48.62
2022-07-28T01:28:50.121Z,48.50
2022-07-28T01:33:55.984Z,48.61
2022-07-28T01:38:55.337Z,49.04
2022-07-28T01:43:58.434Z,49.06
2022-07-28T01:49:00.769Z,48.70
2022-07-28T01:54:01.602Z,48.05
2022-07-28T01:59:05.120Z,48.64
2022-07-28T02:04:06.840Z,49.01
2022-07-28T02:09:07.223Z,48.59
2022-07-28T02:14:08.723Z,49.10
2022-07-28T02:19:10.304Z,48.84
2022-07-28T02:24:14.539Z,49.20
2022-07-28T02:29:40.557Z,49.26
2022-07-28T02:34:39.754Z,49.57
2022-07-28T02:39:44.647Z,49.79
2022-07-28T02:45:00.906Z,48.94
2022-07-28T02:50:03.976Z,49.02
2022-07-28T02:55:04.782Z,48.68
2022-07-28T03:00:04.137Z,49.71
2022-07-28T03:05:08.687Z,50.08
2022-07-28T03:10:18.549Z,49.79
2022-07-28T03:15:33.246Z,51.29
2022-07-28T03:20:34.538Z,51.65
2022-07-28T03:25:39.757Z,51.52
2022-07-28T03:30:43.064Z,52.89
2022-07-28T03:35:48.779Z,52.45
2022-07-28T03:40:50.383Z,52.41
2022-07-28T03:45:49.461Z,53.81
2022-07-28T03:50:49.540Z,53.92
2022-07-28T03:55:51.157Z,53.55
2022-07-28T04:00:52.839Z,52.64
2022-07-28T04:05:53.045Z,52.88
2022-07-28T04:10:53.538Z,52.58
2022-07-28T04:15:52.369Z,52.48
2022-07-28T04:20:52.537Z,51.88
2022-07-28T04:25:51.334Z,52.63
2022-07-28T04:30:50.172Z,52.17
2022-07-28T04:35:49.237Z,52.49
2022-07-28T04:40:50.238Z,51.97
2022-07-28T04:45:53.351Z,52.33
2022-07-28T04:50:53.772Z,52.24
2022-07-28T04:55:55.446Z,52.51
2022-07-28T05:00:54.382Z,53.15
2022-07-28T05:05:54.535Z,51.99
2022-07-28T05:10:56.374Z,53.20
2022-07-28T05:15:55.264Z,52.05
2022-07-28T05:20:54.018Z,51.50
2022-07-28T05:25:54.206Z,51.88
2022-07-28T05:30:53.040Z,50.65
2022-07-28T05:35:55.102Z,50.63
2022-07-28T05:40:55.314Z,49.45
2022-07-28T05:45:54.123Z,48.60
2022-07-28T05:50:54.492Z,48.17
2022-07-28T05:56:00.544Z,48.21
2022-07-28T06:01:01.610Z,49.78
2022-07-28T06:06:14.649Z,50.79
2022-07-28T06:11:22.747Z,50.54
2022-07-28T06:16:23.412Z,49.97
2022-07-28T06:21:24.532Z,50.34
2022-07-28T06:26:24.456Z,50.37
2022-07-28T06:31:23.214Z,50.41
2022-07-28T06:36:23.007Z,50.43
2022-07-28T06:41:22.575Z,50.33
2022-07-28T06:46:24.023Z,50.78
2022-07-28T06:51:23.406Z,50.61
2022-07-28T06:56:22.144Z,49.33
2022-07-28T07:01:23.763Z,48.47
2022-07-28T07:06:22.587Z,47.21
2022-07-28T07:11:21.353Z,46.23
2022-07-28T07:16:20.543Z,45.53
2022-07-28T07:21:23.502Z,45.45
2022-07-28T07:26:26.723Z,44.36
2022-07-28T07:31:25.665Z,43.68
2022-07-28T07:36:25.891Z,41.71
2022-07-28T07:41:24.659Z,40.29
2022-07-28T07:46:23.928Z,39.58
2022-07-28T07:51:22.742Z,39.88
2022-07-28T07:56:23.041Z,40.06
2022-07-28T08:01:21.817Z,39.21
2022-07-28T08:06:26.347Z,38.28
2022-07-28T08:11:27.033Z,37.38
2022-07-28T08:16:25.850Z,37.78
2022-07-28T08:21:25.037Z,37.50
2022-07-28T08:26:24.099Z,37.62
2022-07-28T08:31:24.614Z,37.77
2022-07-28T08:36:23.929Z,36.98
2022-07-28T08:41:33.530Z,36.42
2022-07-28T08:46:37.435Z,36.25
2022-07-28T08:51:38.179Z,34.58
2022-07-28T08:56:39.689Z,32.27
2022-07-28T09:01:51.650Z,30.73
2022-07-28T09:06:55.405Z,30.51
2022-07-28T09:11:54.293Z,30.14
2022-07-28T09:16:54.844Z,28.48
2022-07-28T09:21:53.590Z,28.82
2022-07-28T09:27:02.604Z,27.89
2022-07-28T09:32:03.216Z,27.15
2022-07-28T09:37:02.249Z,26.64
2022-07-28T09:42:02.006Z,24.99
2022-07-28T09:47:02.234Z,25.39
2022-07-28T09:52:02.337Z,25.51
2022-07-28T09:57:01.162Z,24.98
2022-07-28T10:02:02.971Z,23.86
2022-07-28T10:07:03.773Z,23.50
2022-07-28T10:12:19.797Z,22.03
2022-07-28T10:17:33.513Z,22.40
2022-07-28T10:22:34.648Z,22.10
2022-07-28T10:27:35.216Z,21.99
2022-07-28T10:32:42.685Z,21.70
2022-07-28T10:37:47.546Z,21.17
2022-07-28T10:42:46.354Z,21.54
2022-07-28T10:47:48.002Z,20.75
2022-07-28T10:52:48.276Z,20.01
2022-07-28T10:58:01.925Z,20.41
2022-07-28T11:03:13.427Z,20.22
2022-07-28T11:08:29.536Z,20.02
2022-07-28T11:13:33.332Z,19.24
2022-07-28T11:19:36.705Z,18.82
2022-07-28T11:24:26.768Z,18.97
2022-07-28T11:29:27.560Z,18.50
2022-07-28T11:34:27.899Z,17.83
2022-07-28T11:39:27.994Z,18.17
2022-07-28T11:44:27.982Z,18.00
2022-07-28T11:49:28.827Z,18.11
2022-07-28T11:54:27.623Z,17.08
2022-07-28T11:59:36.456Z,17.33
2022-07-28T12:04:38.553Z,19.22
2022-07-28T12:09:42.563Z,18.29
2022-07-28T12:14:43.549Z,18.29
2022-07-28T12:19:43.696Z,17.84
2022-07-28T12:24:44.920Z,17.55
2022-07-28T12:29:47.902Z,16.75
2022-07-28T12:34:49.664Z,16.67
2022-07-28T12:39:52.506Z,16.48
2022-07-28T12:44:54.200Z,16.51
2022-07-28T12:50:10.052Z,16.88
2022-07-28T12:55:27.005Z,16.73
2022-07-28T13:00:27.534Z,16.22
2022-07-28T13:05:33.395Z,16.85
2022-07-28T13:10:32.647Z,16.36
2022-07-28T13:15:32.141Z,16.53
2022-07-28T13:20:34.741Z,16.79
2022-07-28T13:25:34.315Z,16.60
2022-07-28T13:30:33.105Z,16.94
2022-07-28T13:35:33.345Z,16.96
2022-07-28T13:40:32.147Z,17.18
2022-07-28T13:45:30.993Z,17.57
2022-07-28T13:50:30.245Z,17.90
2022-07-28T13:55:30.733Z,19.07
2022-07-28T14:00:29.821Z,20.61
2022-07-28T14:05:31.921Z,23.44
2022-07-28T14:10:32.944Z,30.02
2022-07-28T14:15:31.748Z,34.58
2022-07-28T14:20:30.806Z,42.38
2022-07-28T14:25:44.221Z,45.09
2022-07-28T14:30:48.998Z,47.15
2022-07-28T14:35:48.246Z,43.91
2022-07-28T14:40:47.503Z,42.46
2022-07-28T14:46:13.470Z,45.63
2022-07-28T14:51:18.779Z,45.08
2022-07-28T14:56:21.736Z,45.71
2022-07-28T15:01:22.894Z,45.21
2022-07-28T15:06:22.457Z,44.94
2022-07-28T15:11:29.825Z,44.22
2022-07-28T15:16:35.497Z,44.95
2022-07-28T15:21:36.779Z,44.11
2022-07-28T15:26:39.468Z,44.23
2022-07-28T15:31:41.879Z,46.04
2022-07-28T15:36:43.213Z,44.36
2022-07-28T15:41:44.338Z,43.70
2022-07-28T15:46:46.646Z,42.91
2022-07-28T15:51:45.715Z,42.83
2022-07-28T15:56:44.478Z,42.51
2022-07-28T16:01:45.753Z,43.83
2022-07-28T16:07:02.251Z,42.64
2022-07-28T16:12:01.263Z,43.29
2022-07-28T16:17:05.958Z,45.23
2022-07-28T16:22:04.492Z,48.49
2022-07-28T16:27:03.294Z,49.22
2022-07-28T16:32:02.124Z,50.16
2022-07-28T16:37:05.758Z,48.10
2022-07-28T16:42:08.313Z,48.19
2022-07-28T16:47:07.469Z,47.34
2022-07-28T16:52:07.865Z,46.38
2022-07-28T16:57:07.421Z,47.41
2022-07-28T17:02:07.254Z,47.10
2022-07-28T17:07:08.391Z,47.32
2022-07-28T17:12:08.755Z,47.14
2022-07-28T17:17:07.666Z,47.34
2022-07-28T17:22:11.060Z,45.84
2022-07-28T17:32:28.942Z,45.85
2022-07-28T17:37:29.378Z,46.14
2022-07-28T17:42:28.349Z,46.11
2022-07-28T17:47:35.880Z,46.13
2022-07-28T17:52:36.804Z,47.41
2022-07-28T17:57:37.879Z,46.77
2022-07-28T18:02:39.396Z,48.75
2022-07-28T18:07:51.245Z,48.57
2022-07-28T18:12:51.675Z,48.31
2022-07-28T18:17:54.964Z,48.87
2022-07-28T18:22:57.567Z,48.11
2022-07-28T18:27:56.793Z,47.68
2022-07-28T18:32:56.043Z,47.28
2022-07-28T18:37:59.007Z,47.73
2022-07-28T18:42:59.153Z,47.25
2022-07-28T18:47:59.778Z,47.52
2022-07-28T18:53:00.746Z,47.85
2022-07-28T18:57:59.690Z,49.41
2022-07-28T19:02:58.651Z,49.53
2022-07-28T19:07:57.630Z,50.82
2022-07-28T19:12:58.022Z,51.39
2022-07-28T19:18:10.431Z,50.39
2022-07-28T19:23:10.568Z,49.38
2022-07-28T19:28:11.796Z,49.25
2022-07-28T19:33:14.596Z,48.58
2022-07-28T19:38:16.617Z,47.75
2022-07-28T19:43:16.839Z,48.09
2022-07-28T19:48:15.913Z,47.80
2022-07-28T19:53:15.146Z,49.25
2022-07-28T19:58:14.225Z,49.81
2022-07-28T20:04:03.512Z,49.50
2022-07-28T20:08:33.804Z,49.08
2022-07-28T20:13:32.806Z,48.64
2022-07-28T20:18:33.245Z,48.83
2022-07-28T20:23:34.590Z,48.23
2022-07-28T20:28:33.534Z,48.05
2022-07-28T20:33:33.796Z,49.10
2022-07-28T20:38:32.660Z,48.98
2022-07-28T20:43:37.131Z,48.98
2022-07-28T20:48:37.746Z,48.91
2022-07-28T20:53:37.557Z,49.02
2022-07-28T20:58:36.560Z,49.29
2022-07-28T21:03:35.637Z,48.80
2022-07-28T21:08:35.895Z,50.01
2022-07-28T21:13:36.629Z,50.66
2022-07-28T21:18:35.696Z,51.68
2022-07-28T21:23:36.056Z,52.57
2022-07-28T21:28:52.223Z,54.02
2022-07-28T21:33:51.254Z,54.93
2022-07-28T21:38:51.384Z,54.71
2022-07-28T21:43:50.243Z,54.82
2022-07-28T21:48:49.046Z,53.82
2022-07-28T21:53:48.381Z,54.67
2022-07-28T21:58:48.738Z,55.20
2022-07-28T22:03:47.486Z,55.38
2022-07-28T22:08:46.219Z,55.68
2022-07-28T22:13:45.170Z,55.87
2022-07-28T22:18:45.556Z,56.62
2022-07-28T22:23:44.471Z,56.96
2022-07-28T22:28:43.333Z,57.55
2022-07-28T22:33:42.129Z,57.22
2022-07-28T22:38:42.316Z,57.13
2022-07-28T22:43:41.031Z,57.03
2022-07-28T22:48:40.091Z,55.98
2022-07-28T22:53:38.899Z,56.03
2022-07-28T22:58:40.238Z,55.80
2022-07-28T23:03:39.200Z,55.13
2022-07-28T23:08:38.053Z,55.14
2022-07-28T23:13:38.273Z,55.72
2022-07-28T23:18:39.590Z,56.65
2022-07-28T23:23:38.146Z,57.70
2022-07-28T23:28:38.286Z,58.69
2022-07-28T23:33:54.283Z,58.32
2022-07-28T23:38:56.219Z,59.63
2022-07-28T23:43:56.570Z,59.23
2022-07-28T23:48:55.392Z,60.35
2022-07-28T23:53:56.422Z,61.17
2022-07-28T23:58:56.866Z,61.16
